Аэропорт: Абакан. Абакан

ICAO: UNAA

METAR:
2021-10-23 00:30:00
UNAA 230030Z 21005MPS CAVOK 03/M01 Q1029 R20/290155 NOSIG RMK QFE749
METAR:
2021-10-22 22:52:00
TAF UNAA 222252Z 2300/2324 20005G12MPS 9999 SCT020CB TEMPO 2300/2303 3200 -SHSNRA